sensor_id;sensor_type;location;lat;lon;timestamp;pressure;altitude;pressure_sealevel;temperature;humidity
46007;BME280;31738;50.188;8.524;2024-02-21T00:00:07;99668.75;;;9.22;81.38
46007;BME280;31738;50.188;8.524;2024-02-21T00:02:33;99671.69;;;9.20;81.22
46007;BME280;31738;50.188;8.524;2024-02-21T00:05:02;99660.19;;;9.20;81.47
46007;BME280;31738;50.188;8.524;2024-02-21T00:07:28;99663.31;;;9.17;81.81
46007;BME280;31738;50.188;8.524;2024-02-21T00:10:00;99660.63;;;9.17;82.53
46007;BME280;31738;50.188;8.524;2024-02-21T00:12:26;99657.41;;;9.15;82.31
46007;BME280;31738;50.188;8.524;2024-02-21T00:14:55;99657.41;;;9.15;82.42
46007;BME280;31738;50.188;8.524;2024-02-21T00:17:20;99650.41;;;9.14;82.40
46007;BME280;31738;50.188;8.524;2024-02-21T00:19:45;99642.38;;;9.14;82.77
46007;BME280;31738;50.188;8.524;2024-02-21T00:22:17;99634.34;;;9.14;82.60
46007;BME280;31738;50.188;8.524;2024-02-21T00:24:45;99617.75;;;9.12;82.66
46007;BME280;31738;50.188;8.524;2024-02-21T00:27:13;99611.00;;;9.09;83.09
46007;BME280;31738;50.188;8.524;2024-02-21T00:29:38;99606.47;;;9.10;82.69
46007;BME280;31738;50.188;8.524;2024-02-21T00:32:06;99604.84;;;9.09;82.88
46007;BME280;31738;50.188;8.524;2024-02-21T00:34:31;99605.09;;;9.07;83.26
46007;BME280;31738;50.188;8.524;2024-02-21T00:37:02;99593.00;;;9.05;83.46
46007;BME280;31738;50.188;8.524;2024-02-21T00:39:28;99593.81;;;9.05;83.78
46007;BME280;31738;50.188;8.524;2024-02-21T00:41:54;99586.03;;;9.04;83.06
46007;BME280;31738;50.188;8.524;2024-02-21T00:44:19;99581.75;;;9.03;83.15
46007;BME280;31738;50.188;8.524;2024-02-21T00:46:44;99569.41;;;9.02;83.62
46007;BME280;31738;50.188;8.524;2024-02-21T00:49:11;99575.81;;;9.01;83.86
46007;BME280;31738;50.188;8.524;2024-02-21T00:51:37;99562.44;;;9.01;83.47
46007;BME280;31738;50.188;8.524;2024-02-21T00:54:02;99563.50;;;9.00;83.87
46007;BME280;31738;50.188;8.524;2024-02-21T00:56:28;99569.88;;;8.99;83.98
46007;BME280;31738;50.188;8.524;2024-02-21T00:58:53;99569.88;;;8.99;84.20
46007;BME280;31738;50.188;8.524;2024-02-21T01:01:23;99573.38;;;8.99;83.89
46007;BME280;31738;50.188;8.524;2024-02-21T01:03:49;99575.47;;;8.97;84.11
46007;BME280;31738;50.188;8.524;2024-02-21T01:06:15;99577.34;;;8.97;84.09
46007;BME280;31738;50.188;8.524;2024-02-21T01:08:40;99578.38;;;8.96;84.43
46007;BME280;31738;50.188;8.524;2024-02-21T01:11:06;99583.19;;;8.94;84.47
46007;BME280;31738;50.188;8.524;2024-02-21T01:13:31;99586.66;;;8.94;84.44
46007;BME280;31738;50.188;8.524;2024-02-21T01:15:56;99580.53;;;8.94;84.14
46007;BME280;31738;50.188;8.524;2024-02-21T01:18:22;99561.22;;;8.92;84.19
46007;BME280;31738;50.188;8.524;2024-02-21T01:20:47;99567.03;;;8.89;84.43
46007;BME280;31738;50.188;8.524;2024-02-21T01:23:13;99567.53;;;8.86;84.68
46007;BME280;31738;50.188;8.524;2024-02-21T01:25:38;99561.34;;;8.85;84.81
46007;BME280;31738;50.188;8.524;2024-02-21T01:28:04;99568.00;;;8.83;84.84
46007;BME280;31738;50.188;8.524;2024-02-21T01:30:29;99559.41;;;8.81;84.98
46007;BME280;31738;50.188;8.524;2024-02-21T01:32:54;99552.44;;;8.80;84.44
46007;BME280;31738;50.188;8.524;2024-02-21T01:35:20;99547.09;;;8.80;84.53
46007;BME280;31738;50.188;8.524;2024-02-21T01:37:45;99542.78;;;8.79;84.62
46007;BME280;31738;50.188;8.524;2024-02-21T01:40:11;99545.22;;;8.80;85.25
46007;BME280;31738;50.188;8.524;2024-02-21T01:42:40;99539.88;;;8.80;85.00
46007;BME280;31738;50.188;8.524;2024-02-21T01:45:08;99532.09;;;8.79;85.15
46007;BME280;31738;50.188;8.524;2024-02-21T01:47:35;99525.69;;;8.80;85.12
46007;BME280;31738;50.188;8.524;2024-02-21T01:50:01;99516.63;;;8.81;85.15
46007;BME280;31738;50.188;8.524;2024-02-21T01:52:28;99525.22;;;8.83;85.24
46007;BME280;31738;50.188;8.524;2024-02-21T01:54:54;99520.91;;;8.82;84.96
46007;BME280;31738;50.188;8.524;2024-02-21T01:57:20;99529.97;;;8.81;85.13
46007;BME280;31738;50.188;8.524;2024-02-21T01:59:45;99516.63;;;8.81;85.53
46007;BME280;31738;50.188;8.524;2024-02-21T02:02:11;99502.19;;;8.82;85.43
46007;BME280;31738;50.188;8.524;2024-02-21T02:04:38;99494.97;;;8.82;85.29
46007;BME280;31738;50.188;8.524;2024-02-21T02:07:04;99508.59;;;8.81;85.08
46007;BME280;31738;50.188;8.524;2024-02-21T02:09:32;99506.97;;;8.80;85.31
46007;BME280;31738;50.188;8.524;2024-02-21T02:11:57;99501.63;;;8.80;85.46
46007;BME280;31738;50.188;8.524;2024-02-21T02:14:25;99502.41;;;8.80;85.14
46007;BME280;31738;50.188;8.524;2024-02-21T02:16:50;99495.22;;;8.81;85.80
46007;BME280;31738;50.188;8.524;2024-02-21T02:19:15;99492.53;;;8.81;85.28
46007;BME280;31738;50.188;8.524;2024-02-21T02:21:46;99492.28;;;8.82;85.73
46007;BME280;31738;50.188;8.524;2024-02-21T02:24:12;99486.13;;;8.82;85.50
46007;BME280;31738;50.188;8.524;2024-02-21T02:26:39;99491.47;;;8.82;85.17
46007;BME280;31738;50.188;8.524;2024-02-21T02:29:05;99480.78;;;8.82;85.21
46007;BME280;31738;50.188;8.524;2024-02-21T02:31:30;99478.91;;;8.82;85.72
46007;BME280;31738;50.188;8.524;2024-02-21T02:33:56;99478.09;;;8.82;85.49
46007;BME280;31738;50.188;8.524;2024-02-21T02:36:21;99473.31;;;8.84;85.81
46007;BME280;31738;50.188;8.524;2024-02-21T02:38:46;99467.16;;;8.83;85.48
46007;BME280;31738;50.188;8.524;2024-02-21T02:41:12;99460.78;;;8.84;86.05
46007;BME280;31738;50.188;8.524;2024-02-21T02:43:37;99464.25;;;8.85;85.59
46007;BME280;31738;50.188;8.524;2024-02-21T02:46:03;99472.84;;;8.87;86.03
46007;BME280;31738;50.188;8.524;2024-02-21T02:48:29;99458.41;;;8.88;86.07
46007;BME280;31738;50.188;8.524;2024-02-21T02:50:54;99449.59;;;8.87;85.92
46007;BME280;31738;50.188;8.524;2024-02-21T02:53:20;99453.06;;;8.88;85.88
46007;BME280;31738;50.188;8.524;2024-02-21T02:55:45;99468.59;;;8.91;85.84
46007;BME280;31738;50.188;8.524;2024-02-21T02:58:11;99466.50;;;8.93;86.32
46007;BME280;31738;50.188;8.524;2024-02-21T03:00:37;99464.91;;;8.92;85.83
46007;BME280;31738;50.188;8.524;2024-02-21T03:03:04;99457.44;;;8.94;85.72
46007;BME280;31738;50.188;8.524;2024-02-21T03:05:29;99442.44;;;8.93;85.72
46007;BME280;31738;50.188;8.524;2024-02-21T03:07:55;99437.09;;;8.93;86.38
46007;BME280;31738;50.188;8.524;2024-02-21T03:10:20;99429.06;;;8.93;86.38
46007;BME280;31738;50.188;8.524;2024-02-21T03:12:46;99426.38;;;8.93;86.12
46007;BME280;31738;50.188;8.524;2024-02-21T03:15:12;99409.75;;;8.91;86.56
46007;BME280;31738;50.188;8.524;2024-02-21T03:17:38;99409.75;;;8.91;86.61
46007;BME280;31738;50.188;8.524;2024-02-21T03:20:04;99411.41;;;8.92;86.12
46007;BME280;31738;50.188;8.524;2024-02-21T03:22:31;99409.28;;;8.94;86.54
46007;BME280;31738;50.188;8.524;2024-02-21T03:24:57;99404.97;;;8.93;86.17
46007;BME280;31738;50.188;8.524;2024-02-21T03:27:23;99401.50;;;8.92;86.10
46007;BME280;31738;50.188;8.524;2024-02-21T03:29:48;99388.34;;;8.91;86.53
46007;BME280;31738;50.188;8.524;2024-02-21T03:32:14;99393.69;;;8.91;86.79
46007;BME280;31738;50.188;8.524;2024-02-21T03:34:39;99398.03;;;8.92;86.12
46007;BME280;31738;50.188;8.524;2024-02-21T03:37:05;99384.66;;;8.92;86.50
46007;BME280;31738;50.188;8.524;2024-02-21T03:39:33;99372.09;;;8.92;86.74
46007;BME280;31738;50.188;8.524;2024-02-21T03:41:59;99377.44;;;8.92;86.37
46007;BME280;31738;50.188;8.524;2024-02-21T03:44:32;99380.91;;;8.93;86.35
46007;BME280;31738;50.188;8.524;2024-02-21T03:46:59;99373.94;;;8.92;86.76
46007;BME280;31738;50.188;8.524;2024-02-21T03:49:25;99380.91;;;8.93;86.72
46007;BME280;31738;50.188;8.524;2024-02-21T03:51:50;99380.91;;;8.93;86.77
46007;BME280;31738;50.188;8.524;2024-02-21T03:54:16;99380.91;;;8.93;86.38
46007;BME280;31738;50.188;8.524;2024-02-21T03:56:41;99386.25;;;8.93;86.85
46007;BME280;31738;50.188;8.524;2024-02-21T03:59:07;99385.47;;;8.92;86.75
46007;BME280;31738;50.188;8.524;2024-02-21T04:01:34;99375.53;;;8.93;86.67
46007;BME280;31738;50.188;8.524;2024-02-21T04:03:59;99375.53;;;8.93;86.33
46007;BME280;31738;50.188;8.524;2024-02-21T04:06:25;99372.31;;;8.91;86.92
46007;BME280;31738;50.188;8.524;2024-02-21T04:08:50;99373.13;;;8.91;86.46
46007;BME280;31738;50.188;8.524;2024-02-21T04:11:16;99388.34;;;8.91;86.87
46007;BME280;31738;50.188;8.524;2024-02-21T04:13:42;99388.84;;;8.88;86.59
46007;BME280;31738;50.188;8.524;2024-02-21T04:16:08;99380.28;;;8.86;86.47
46007;BME280;31738;50.188;8.524;2024-02-21T04:18:33;99376.78;;;8.85;86.93
46007;BME280;31738;50.188;8.524;2024-02-21T04:20:59;99366.34;;;8.84;87.01
46007;BME280;31738;50.188;8.524;2024-02-21T04:23:24;99354.81;;;8.83;87.04
46007;BME280;31738;50.188;8.524;2024-02-21T04:25:50;99344.94;;;8.84;86.85
46007;BME280;31738;50.188;8.524;2024-02-21T04:28:15;99349.47;;;8.83;86.64
46007;BME280;31738;50.188;8.524;2024-02-21T04:30:41;99351.88;;;8.85;86.23
46007;BME280;31738;50.188;8.524;2024-02-21T04:33:06;99335.84;;;8.85;86.72
46007;BME280;31738;50.188;8.524;2024-02-21T04:35:31;99333.75;;;8.87;86.20
46007;BME280;31738;50.188;8.524;2024-02-21T04:37:57;99324.09;;;8.86;86.30
46007;BME280;31738;50.188;8.524;2024-02-21T04:40:22;99324.91;;;8.86;86.38
46007;BME280;31738;50.188;8.524;2024-02-21T04:42:48;99333.75;;;8.87;86.25
46007;BME280;31738;50.188;8.524;2024-02-21T04:45:13;99344.44;;;8.87;86.26
46007;BME280;31738;50.188;8.524;2024-02-21T04:47:39;99326.78;;;8.86;86.30
46007;BME280;31738;50.188;8.524;2024-02-21T04:50:04;99325.97;;;8.85;86.73
46007;BME280;31738;50.188;8.524;2024-02-21T04:52:31;99319.78;;;8.85;86.71
46007;BME280;31738;50.188;8.524;2024-02-21T04:54:56;99312.59;;;8.85;86.18
46007;BME280;31738;50.188;8.524;2024-02-21T04:57:22;99312.84;;;8.84;86.52
46007;BME280;31738;50.188;8.524;2024-02-21T04:59:47;99310.41;;;8.82;86.15
46007;BME280;31738;50.188;8.524;2024-02-21T05:02:13;99314.94;;;8.82;86.76
46007;BME280;31738;50.188;8.524;2024-02-21T05:04:39;99306.13;;;8.81;86.12
46007;BME280;31738;50.188;8.524;2024-02-21T05:07:05;99312.25;;;8.82;86.72
46007;BME280;31738;50.188;8.524;2024-02-21T05:09:31;99322.97;;;8.82;86.70
46007;BME280;31738;50.188;8.524;2024-02-21T05:11:56;99327.53;;;8.81;86.38
46007;BME280;31738;50.188;8.524;2024-02-21T05:14:24;99327.28;;;8.83;86.48
46007;BME280;31738;50.188;8.524;2024-02-21T05:16:50;99317.63;;;8.82;86.27
46007;BME280;31738;50.188;8.524;2024-02-21T05:19:15;99316.56;;;8.83;86.18
46007;BME280;31738;50.188;8.524;2024-02-21T05:21:41;99320.28;;;8.82;86.62
46007;BME280;31738;50.188;8.524;2024-02-21T05:24:06;99320.53;;;8.80;86.51
46007;BME280;31738;50.188;8.524;2024-02-21T05:26:31;99327.53;;;8.81;86.22
46007;BME280;31738;50.188;8.524;2024-02-21T05:28:57;99332.88;;;8.81;86.18
46007;BME280;31738;50.188;8.524;2024-02-21T05:31:24;99333.66;;;8.82;86.29
46007;BME280;31738;50.188;8.524;2024-02-21T05:33:50;99329.38;;;8.81;86.64
46007;BME280;31738;50.188;8.524;2024-02-21T05:36:15;99334.47;;;8.82;86.17
46007;BME280;31738;50.188;8.524;2024-02-21T05:38:41;99332.88;;;8.81;86.48
46007;BME280;31738;50.188;8.524;2024-02-21T05:41:06;99317.63;;;8.82;86.66
46007;BME280;31738;50.188;8.524;2024-02-21T05:43:32;99321.34;;;8.81;86.51
46007;BME280;31738;50.188;8.524;2024-02-21T05:45:57;99318.09;;;8.79;86.01
46007;BME280;31738;50.188;8.524;2024-02-21T05:48:23;99311.16;;;8.78;86.49
46007;BME280;31738;50.188;8.524;2024-02-21T05:50:49;99317.56;;;8.77;86.28
46007;BME280;31738;50.188;8.524;2024-02-21T05:53:15;99314.31;;;8.75;86.27
46007;BME280;31738;50.188;8.524;2024-02-21T05:55:40;99301.19;;;8.73;85.98
46007;BME280;31738;50.188;8.524;2024-02-21T05:58:06;99301.19;;;8.73;86.31
46007;BME280;31738;50.188;8.524;2024-02-21T06:00:32;99305.19;;;8.71;85.86
46007;BME280;31738;50.188;8.524;2024-02-21T06:02:58;99296.84;;;8.67;86.39
46007;BME280;31738;50.188;8.524;2024-02-21T06:05:24;99294.41;;;8.65;86.28
46007;BME280;31738;50.188;8.524;2024-02-21T06:07:50;99284.22;;;8.62;85.86
46007;BME280;31738;50.188;8.524;2024-02-21T06:10:15;99284.72;;;8.59;86.24
46007;BME280;31738;50.188;8.524;2024-02-21T06:12:41;99286.31;;;8.60;86.45
46007;BME280;31738;50.188;8.524;2024-02-21T06:15:07;99282.53;;;8.56;86.32
46007;BME280;31738;50.188;8.524;2024-02-21T06:17:32;99288.91;;;8.55;86.06
46007;BME280;31738;50.188;8.524;2024-02-21T06:19:58;99287.31;;;8.54;85.98
46007;BME280;31738;50.188;8.524;2024-02-21T06:22:23;99278.72;;;8.52;86.20
46007;BME280;31738;50.188;8.524;2024-02-21T06:24:49;99286.47;;;8.54;85.91
46007;BME280;31738;50.188;8.524;2024-02-21T06:27:15;99289.41;;;8.52;85.67
46007;BME280;31738;50.188;8.524;2024-02-21T06:29:41;99284.06;;;8.52;85.65
46007;BME280;31738;50.188;8.524;2024-02-21T06:32:07;99282.44;;;8.51;86.39
46007;BME280;31738;50.188;8.524;2024-02-21T06:34:33;99281.88;;;8.49;85.96
46007;BME280;31738;50.188;8.524;2024-02-21T06:36:58;99274.09;;;8.48;86.21
46007;BME280;31738;50.188;8.524;2024-02-21T06:39:23;99269.00;;;8.46;85.98
46007;BME280;31738;50.188;8.524;2024-02-21T06:41:49;99267.63;;;8.44;85.82
46007;BME280;31738;50.188;8.524;2024-02-21T06:44:18;99264.16;;;8.43;85.54
46007;BME280;31738;50.188;8.524;2024-02-21T06:46:44;99263.13;;;8.44;86.21
46007;BME280;31738;50.188;8.524;2024-02-21T06:49:09;99265.78;;;8.44;85.72
46007;BME280;31738;50.188;8.524;2024-02-21T06:51:44;99266.31;;;8.46;85.97
46007;BME280;31738;50.188;8.524;2024-02-21T06:54:10;99269.56;;;8.48;85.90
46007;BME280;31738;50.188;8.524;2024-02-21T06:56:36;99269.31;;;8.50;85.70
46007;BME280;31738;50.188;8.524;2024-02-21T06:59:02;99275.00;;;8.53;85.89
46007;BME280;31738;50.188;8.524;2024-02-21T07:01:31;99292.66;;;8.54;86.45
46007;BME280;31738;50.188;8.524;2024-02-21T07:03:57;99292.97;;;8.58;85.71
46007;BME280;31738;50.188;8.524;2024-02-21T07:06:23;99287.13;;;8.61;85.77
46007;BME280;31738;50.188;8.524;2024-02-21T07:08:49;99276.72;;;8.64;86.30
46007;BME280;31738;50.188;8.524;2024-02-21T07:11:14;99264.50;;;8.68;86.12
46007;BME280;31738;50.188;8.524;2024-02-21T07:13:40;99260.25;;;8.73;86.04
46007;BME280;31738;50.188;8.524;2024-02-21T07:16:06;99258.16;;;8.75;86.12
46007;BME280;31738;50.188;8.524;2024-02-21T07:18:32;99263.56;;;8.80;85.47
46007;BME280;31738;50.188;8.524;2024-02-21T07:20:58;99262.25;;;8.82;85.45
46007;BME280;31738;50.188;8.524;2024-02-21T07:23:24;99263.38;;;8.86;85.59
46007;BME280;31738;50.188;8.524;2024-02-21T07:25:49;99258.34;;;8.90;85.68
46007;BME280;31738;50.188;8.524;2024-02-21T07:28:14;99256.56;;;8.95;85.67
46007;BME280;31738;50.188;8.524;2024-02-21T07:30:41;99257.66;;;8.99;85.55
46007;BME280;31738;50.188;8.524;2024-02-21T07:33:07;99256.34;;;9.02;85.53
46007;BME280;31738;50.188;8.524;2024-02-21T07:35:32;99262.81;;;9.06;85.46
46007;BME280;31738;50.188;8.524;2024-02-21T07:37:58;99266.03;;;9.08;85.00
46007;BME280;31738;50.188;8.524;2024-02-21T07:40:26;99267.69;;;9.09;84.63
46007;BME280;31738;50.188;8.524;2024-02-21T07:42:51;99263.63;;;9.06;85.01
46007;BME280;31738;50.188;8.524;2024-02-21T07:45:17;99263.63;;;9.06;84.73
46007;BME280;31738;50.188;8.524;2024-02-21T07:47:43;99262.31;;;9.09;84.65
46007;BME280;31738;50.188;8.524;2024-02-21T07:50:09;99262.84;;;9.11;84.62
46007;BME280;31738;50.188;8.524;2024-02-21T07:52:34;99265.53;;;9.11;84.59
46007;BME280;31738;50.188;8.524;2024-02-21T07:55:00;99267.19;;;9.12;84.06
46007;BME280;31738;50.188;8.524;2024-02-21T07:57:25;99277.38;;;9.15;83.99
46007;BME280;31738;50.188;8.524;2024-02-21T07:59:51;99274.44;;;9.16;84.21
46007;BME280;31738;50.188;8.524;2024-02-21T08:02:16;99269.88;;;9.17;83.59
46007;BME280;31738;50.188;8.524;2024-02-21T08:04:42;99273.13;;;9.19;83.66
46007;BME280;31738;50.188;8.524;2024-02-21T08:07:08;99274.50;;;9.21;83.68
46007;BME280;31738;50.188;8.524;2024-02-21T08:09:34;99271.03;;;9.21;83.51
46007;BME280;31738;50.188;8.524;2024-02-21T08:12:00;99264.06;;;9.20;83.27
46007;BME280;31738;50.188;8.524;2024-02-21T08:14:26;99264.59;;;9.22;83.36
46007;BME280;31738;50.188;8.524;2024-02-21T08:16:51;99263.56;;;9.23;83.05
46007;BME280;31738;50.188;8.524;2024-02-21T08:19:19;99260.38;;;9.26;82.83
46007;BME280;31738;50.188;8.524;2024-02-21T08:21:45;99260.13;;;9.27;83.14
46007;BME280;31738;50.188;8.524;2024-02-21T08:24:13;99253.94;;;9.27;82.50
46007;BME280;31738;50.188;8.524;2024-02-21T08:26:41;99249.66;;;9.26;82.73
46007;BME280;31738;50.188;8.524;2024-02-21T08:29:06;99257.44;;;9.27;82.30
46007;BME280;31738;50.188;8.524;2024-02-21T08:31:31;99260.88;;;9.23;82.77
46007;BME280;31738;50.188;8.524;2024-02-21T08:33:58;99249.59;;;9.21;82.58
46007;BME280;31738;50.188;8.524;2024-02-21T08:36:30;99256.56;;;9.22;82.69
46007;BME280;31738;50.188;8.524;2024-02-21T08:38:56;99252.84;;;9.23;82.48
46007;BME280;31738;50.188;8.524;2024-02-21T08:41:23;99259.81;;;9.24;81.78
46007;BME280;31738;50.188;8.524;2024-02-21T08:43:53;99256.88;;;9.25;82.08
46007;BME280;31738;50.188;8.524;2024-02-21T08:46:20;99256.38;;;9.28;82.07
46007;BME280;31738;50.188;8.524;2024-02-21T08:48:46;99252.63;;;9.29;81.71
46007;BME280;31738;50.188;8.524;2024-02-21T08:51:14;99248.09;;;9.30;81.55
46007;BME280;31738;50.188;8.524;2024-02-21T08:53:40;99252.38;;;9.31;81.65
46007;BME280;31738;50.188;8.524;2024-02-21T08:56:06;99251.34;;;9.32;81.19
46007;BME280;31738;50.188;8.524;2024-02-21T08:58:33;99254.53;;;9.34;81.36
46007;BME280;31738;50.188;8.524;2024-02-21T09:00:58;99240.13;;;9.35;81.06
46007;BME280;31738;50.188;8.524;2024-02-21T09:03:24;99238.22;;;9.35;80.66
46007;BME280;31738;50.188;8.524;2024-02-21T09:05:50;99246.56;;;9.39;81.15
46007;BME280;31738;50.188;8.524;2024-02-21T09:08:15;99240.72;;;9.42;80.45
46007;BME280;31738;50.188;8.524;2024-02-21T09:10:42;99239.69;;;9.48;80.56
46007;BME280;31738;50.188;8.524;2024-02-21T09:13:07;99238.44;;;9.55;80.27
46007;BME280;31738;50.188;8.524;2024-02-21T09:15:34;99230.69;;;9.59;80.17
46007;BME280;31738;50.188;8.524;2024-02-21T09:17:59;99228.03;;;9.59;80.15
46007;BME280;31738;50.188;8.524;2024-02-21T09:20:25;99235.81;;;9.60;80.14
46007;BME280;31738;50.188;8.524;2024-02-21T09:22:50;99231.00;;;9.62;79.77
46007;BME280;31738;50.188;8.524;2024-02-21T09:25:17;99236.38;;;9.62;79.58
46007;BME280;31738;50.188;8.524;2024-02-21T09:27:44;99231.78;;;9.63;79.70
46007;BME280;31738;50.188;8.524;2024-02-21T09:30:10;99222.22;;;9.67;79.37
46007;BME280;31738;50.188;8.524;2024-02-21T09:32:35;99220.63;;;9.71;79.00
46007;BME280;31738;50.188;8.524;2024-02-21T09:35:01;99224.97;;;9.77;79.24
46007;BME280;31738;50.188;8.524;2024-02-21T09:37:27;99218.31;;;9.84;79.10
46007;BME280;31738;50.188;8.524;2024-02-21T09:39:52;99216.81;;;9.98;78.86
46007;BME280;31738;50.188;8.524;2024-02-21T09:42:20;99219.09;;;10.11;78.37
46007;BME280;31738;50.188;8.524;2024-02-21T09:44:46;99221.31;;;10.24;78.52
46007;BME280;31738;50.188;8.524;2024-02-21T09:47:24;99215.25;;;10.39;78.07
46007;BME280;31738;50.188;8.524;2024-02-21T09:49:54;99216.31;;;10.43;77.79
46007;BME280;31738;50.188;8.524;2024-02-21T09:52:20;99208.84;;;10.50;77.40
46007;BME280;31738;50.188;8.524;2024-02-21T09:54:47;99213.69;;;10.53;77.23
46007;BME280;31738;50.188;8.524;2024-02-21T09:57:14;99212.41;;;10.61;77.10
46007;BME280;31738;50.188;8.524;2024-02-21T09:59:40;99213.25;;;10.71;76.95
46007;BME280;31738;50.188;8.524;2024-02-21T10:02:08;99210.03;;;10.79;76.86
46007;BME280;31738;50.188;8.524;2024-02-21T10:04:36;99219.75;;;10.90;76.76
46007;BME280;31738;50.188;8.524;2024-02-21T10:07:02;99219.25;;;10.98;76.01
46007;BME280;31738;50.188;8.524;2024-02-21T10:09:29;99217.66;;;11.07;75.79
46007;BME280;31738;50.188;8.524;2024-02-21T10:12:11;99209.13;;;11.20;75.83
46007;BME280;31738;50.188;8.524;2024-02-21T10:14:43;99208.03;;;11.31;75.55
46007;BME280;31738;50.188;8.524;2024-02-21T10:17:42;99205.41;;;11.46;74.58
46007;BME280;31738;50.188;8.524;2024-02-21T10:20:28;99197.59;;;11.55;73.85
46007;BME280;31738;50.188;8.524;2024-02-21T10:23:11;99199.22;;;11.61;73.90
46007;BME280;31738;50.188;8.524;2024-02-21T10:25:37;99211.84;;;11.55;73.64
46007;BME280;31738;50.188;8.524;2024-02-21T10:28:26;99215.31;;;11.56;73.75
46007;BME280;31738;50.188;8.524;2024-02-21T10:31:01;99214.78;;;11.49;73.69
46007;BME280;31738;50.188;8.524;2024-02-21T10:33:36;99205.41;;;11.46;73.92
46007;BME280;31738;50.188;8.524;2024-02-21T10:39:19;99189.81;;;11.53;73.77
46007;BME280;31738;50.188;8.524;2024-02-21T10:42:40;99192.47;;;11.48;73.97
46007;BME280;31738;50.188;8.524;2024-02-21T10:45:08;99190.34;;;11.50;73.65
46007;BME280;31738;50.188;8.524;2024-02-21T10:47:39;99187.66;;;11.50;73.45
46007;BME280;31738;50.188;8.524;2024-02-21T10:50:11;99184.97;;;11.50;73.16
46007;BME280;31738;50.188;8.524;2024-02-21T10:55:54;99186.56;;;11.51;73.12
46007;BME280;31738;50.188;8.524;2024-02-21T10:58:36;99182.28;;;11.50;72.53
46007;BME280;31738;50.188;8.524;2024-02-21T11:01:21;99183.34;;;11.54;72.87
46007;BME280;31738;50.188;8.524;2024-02-21T11:04:05;99179.06;;;11.58;72.55
46007;BME280;31738;50.188;8.524;2024-02-21T11:06:55;99165.66;;;11.68;72.45
46007;BME280;31738;50.188;8.524;2024-02-21T11:09:33;99161.88;;;11.79;71.98
46007;BME280;31738;50.188;8.524;2024-02-21T11:12:05;99164.03;;;11.77;71.78
46007;BME280;31738;50.188;8.524;2024-02-21T11:15:03;99164.03;;;11.77;71.50
46007;BME280;31738;50.188;8.524;2024-02-21T11:17:39;99156.50;;;11.74;71.58
46007;BME280;31738;50.188;8.524;2024-02-21T11:20:35;99160.81;;;11.75;71.57
46007;BME280;31738;50.188;8.524;2024-02-21T11:23:03;99153.56;;;11.81;71.52
46007;BME280;31738;50.188;8.524;2024-02-21T11:25:40;99154.06;;;11.88;71.35
46007;BME280;31738;50.188;8.524;2024-02-21T11:31:44;99141.44;;;11.93;71.09
46007;BME280;31738;50.188;8.524;2024-02-21T11:34:29;99133.38;;;11.93;71.15
46007;BME280;31738;50.188;8.524;2024-02-21T11:36:58;99135.53;;;12.01;70.94
46007;BME280;31738;50.188;8.524;2024-02-21T11:39:29;99116.69;;;12.01;71.02
46007;BME280;31738;50.188;8.524;2024-02-21T11:42:13;99108.31;;;12.08;70.72
46007;BME280;31738;50.188;8.524;2024-02-21T11:44:39;99105.34;;;12.09;70.39
46007;BME280;31738;50.188;8.524;2024-02-21T11:47:16;99109.13;;;12.08;69.84
46007;BME280;31738;50.188;8.524;2024-02-21T11:49:53;99115.06;;;12.11;69.65
46007;BME280;31738;50.188;8.524;2024-02-21T11:52:34;99105.34;;;12.15;69.63
46007;BME280;31738;50.188;8.524;2024-02-21T11:55:05;99098.63;;;12.17;69.52
46007;BME280;31738;50.188;8.524;2024-02-21T11:57:41;99098.88;;;12.16;69.36
46007;BME280;31738;50.188;8.524;2024-02-21T12:00:20;99088.66;;;12.18;69.53
46007;BME280;31738;50.188;8.524;2024-02-21T12:02:46;99087.63;;;12.14;69.46
46007;BME280;31738;50.188;8.524;2024-02-21T12:05:16;99092.47;;;12.12;69.74
46007;BME280;31738;50.188;8.524;2024-02-21T12:07:44;99084.38;;;12.12;69.63
46007;BME280;31738;50.188;8.524;2024-02-21T12:10:16;99071.47;;;12.14;70.14
46007;BME280;31738;50.188;8.524;2024-02-21T12:12:48;99071.47;;;12.19;69.85
46007;BME280;31738;50.188;8.524;2024-02-21T12:15:19;99055.84;;;12.21;69.73
46007;BME280;31738;50.188;8.524;2024-02-21T12:17:56;99060.13;;;12.27;69.91
46007;BME280;31738;50.188;8.524;2024-02-21T12:20:36;99048.78;;;12.35;69.39
46007;BME280;31738;50.188;8.524;2024-02-21T12:23:02;99046.63;;;12.37;68.60
46007;BME280;31738;50.188;8.524;2024-02-21T12:25:34;99038.56;;;12.37;68.46
46007;BME280;31738;50.188;8.524;2024-02-21T12:28:28;99034.25;;;12.36;68.35
46007;BME280;31738;50.188;8.524;2024-02-21T12:31:08;99037.47;;;12.38;68.38
46007;BME280;31738;50.188;8.524;2024-02-21T12:33:44;99027.81;;;12.37;68.29
46007;BME280;31738;50.188;8.524;2024-02-21T12:36:09;99022.91;;;12.44;68.19
46007;BME280;31738;50.188;8.524;2024-02-21T12:38:36;99021.78;;;12.50;68.15
46007;BME280;31738;50.188;8.524;2024-02-21T12:41:01;99019.09;;;12.55;67.94
46007;BME280;31738;50.188;8.524;2024-02-21T12:43:29;99018.53;;;12.58;68.23
46007;BME280;31738;50.188;8.524;2024-02-21T12:45:57;99013.13;;;12.58;67.50
46007;BME280;31738;50.188;8.524;2024-02-21T12:48:29;99019.63;;;12.52;67.65
46007;BME280;31738;50.188;8.524;2024-02-21T12:51:35;99013.44;;;12.56;68.06
46007;BME280;31738;50.188;8.524;2024-02-21T12:54:04;99008.34;;;12.50;68.10
46007;BME280;31738;50.188;8.524;2024-02-21T12:56:32;99011.56;;;12.52;67.88
46007;BME280;31738;50.188;8.524;2024-02-21T12:59:13;99017.50;;;12.54;67.27
46007;BME280;31738;50.188;8.524;2024-02-21T13:01:55;99010.00;;;12.46;67.45
46007;BME280;31738;50.188;8.524;2024-02-21T13:04:41;99011.09;;;12.45;67.46
46007;BME280;31738;50.188;8.524;2024-02-21T13:07:11;99001.66;;;12.42;68.03
46007;BME280;31738;50.188;8.524;2024-02-21T13:09:39;98990.06;;;12.47;67.66
46007;BME280;31738;50.188;8.524;2024-02-21T13:12:08;98980.94;;;12.48;67.34
46007;BME280;31738;50.188;8.524;2024-02-21T13:14:56;98986.31;;;12.48;67.08
46007;BME280;31738;50.188;8.524;2024-02-21T13:17:54;98980.97;;;12.38;67.69
46007;BME280;31738;50.188;8.524;2024-02-21T13:20:22;98960.56;;;12.37;67.46
46007;BME280;31738;50.188;8.524;2024-02-21T13:22:59;98959.22;;;12.34;67.58